Time;durP1;ratioP1;P1;durP2;ratioP2;P2;SDS_P1;SDS_P2;PMS_P1;PMS_P2;Temp;Humidity;BMP_temperature;BMP_pressure;BME280_temperature;BME280_humidity;BME280_pressure;Samples;Min_cycle;Max_cycle;Signal;HPM_P1;HPM_P2
2021/10/02 00:44:49;;;;;;;8.48;2.70;;;;;;;11.73;100.00;100876.63;4802502;29;20050;-78
2021/10/02 00:47:18;;;;;;;11.23;2.50;;;;;;;11.76;100.00;100880.78;4791254;29;20038;-78
2021/10/02 00:49:45;;;;;;;17.67;3.35;;;;;;;11.71;100.00;100867.91;4790591;29;20367;-78
2021/10/02 00:52:13;;;;;;;12.60;2.85;;;;;;;11.71;100.00;100872.47;4772778;29;20097;-79
2021/10/02 00:54:39;;;;;;;8.38;2.55;;;;;;;11.75;100.00;100884.50;4804139;29;20123;-78
2021/10/02 00:57:05;;;;;;;15.93;3.00;;;;;;;11.77;100.00;100877.84;4804577;29;20411;-78
2021/10/02 00:59:31;;;;;;;9.38;2.95;;;;;;;11.80;100.00;100875.81;4815352;29;20118;-79
2021/10/02 01:02:11;;;;;;;10.88;2.80;;;;;;;11.79;100.00;100863.34;4802199;29;20486;-78
2021/10/02 01:04:57;;;;;;;13.65;2.90;;;;;;;11.82;100.00;100881.81;4804929;29;20038;-78
2021/10/02 01:07:44;;;;;;;14.13;2.92;;;;;;;11.84;100.00;100868.97;4807793;29;20489;-79
2021/10/02 01:10:26;;;;;;;15.73;3.28;;;;;;;11.86;100.00;100877.72;4802545;29;20112;-78
2021/10/02 01:13:19;;;;;;;11.75;2.72;;;;;;;11.82;100.00;100871.88;4787676;29;20055;-79
2021/10/02 01:15:57;;;;;;;12.52;2.78;;;;;;;11.89;100.00;100880.00;4796148;29;20046;-78
2021/10/02 01:18:25;;;;;;;13.65;2.90;;;;;;;11.90;100.00;100868.16;4789689;29;20034;-78
2021/10/02 01:21:06;;;;;;;12.88;2.63;;;;;;;11.92;100.00;100869.63;4803749;29;20157;-78
2021/10/02 01:23:59;;;;;;;12.07;3.05;;;;;;;11.90;100.00;100868.16;4799314;29;20023;-79
2021/10/02 01:26:39;;;;;;;13.02;3.10;;;;;;;11.90;100.00;100860.91;4804288;29;20530;-78
2021/10/02 01:29:08;;;;;;;18.23;3.22;;;;;;;11.92;100.00;100868.78;4803129;29;20469;-78
2021/10/02 01:31:41;;;;;;;17.35;3.17;;;;;;;11.89;100.00;100855.72;4786174;29;20059;-79
2021/10/02 01:48:20;;;;;;;11.23;2.90;;;;;;;11.76;100.00;100825.00;4790790;29;20065;-79
2021/10/02 01:50:50;;;;;;;14.57;3.45;;;;;;;11.96;100.00;100856.56;4784698;29;20118;-78
2021/10/02 01:53:17;;;;;;;11.57;2.80;;;;;;;11.98;100.00;100855.28;4802356;29;20065;-78
2021/10/02 01:55:44;;;;;;;15.45;3.08;;;;;;;11.95;100.00;100844.09;4798369;29;20454;-78
2021/10/02 01:58:16;;;;;;;15.88;3.55;;;;;;;11.84;100.00;100834.75;4802416;29;20437;-78
2021/10/02 02:00:47;;;;;;;15.60;2.75;;;;;;;11.96;100.00;100848.47;4800232;29;20039;-78
2021/10/02 02:03:16;;;;;;;14.43;3.00;;;;;;;11.83;100.00;100822.28;4804088;29;20058;-79
2021/10/02 02:05:43;;;;;;;11.63;3.33;;;;;;;11.91;100.00;100838.28;4803289;29;20055;-79
2021/10/02 02:08:13;;;;;;;14.52;3.13;;;;;;;11.94;100.00;100835.19;4773281;29;20484;-78
2021/10/02 02:10:41;;;;;;;15.98;3.17;;;;;;;11.94;100.00;100842.44;4803777;29;20088;-79
2021/10/02 02:13:08;;;;;;;13.18;2.88;;;;;;;11.87;100.00;100823.56;4804197;29;20365;-79
2021/10/02 02:15:35;;;;;;;11.18;2.80;;;;;;;11.83;100.00;100816.06;4785369;29;20039;-79
2021/10/02 02:18:04;;;;;;;16.27;2.97;;;;;;;11.97;100.00;100833.94;4802740;29;20461;-79
2021/10/02 02:20:36;;;;;;;15.40;3.53;;;;;;;11.98;100.00;100833.72;4807495;29;20049;-79
2021/10/02 02:23:03;;;;;;;15.93;3.53;;;;;;;12.03;100.00;100830.41;4806204;29;20044;-79
2021/10/02 02:25:29;;;;;;;14.45;3.03;;;;;;;12.06;100.00;100816.53;4785716;29;20426;-79
2021/10/02 02:27:55;;;;;;;15.38;3.17;;;;;;;12.11;100.00;100824.78;4786766;29;20038;-79
2021/10/02 02:30:21;;;;;;;21.77;3.33;;;;;;;12.12;100.00;100821.09;4786663;29;20027;-79
2021/10/02 02:32:47;;;;;;;20.15;3.25;;;;;;;12.08;100.00;100814.41;4787708;29;20469;-78
2021/10/02 02:35:14;;;;;;;14.50;3.15;;;;;;;12.18;100.00;100820.22;4800057;29;20068;-78
2021/10/02 02:37:40;;;;;;;11.70;3.08;;;;;;;12.19;100.00;100821.91;4799285;29;20043;-78
2021/10/02 02:40:06;;;;;;;12.35;3.10;;;;;;;12.00;100.00;100795.78;4803537;29;20462;-78
2021/10/02 02:42:33;;;;;;;19.63;3.65;;;;;;;12.16;100.00;100821.50;4801834;29;20034;-78
2021/10/02 02:44:58;;;;;;;11.35;2.95;;;;;;;12.14;100.00;100823.56;4782828;29;20038;-78
2021/10/02 02:47:26;;;;;;;16.05;3.30;;;;;;;12.05;100.00;100806.75;4777373;29;20367;-78
2021/10/02 02:49:59;;;;;;;13.60;2.90;;;;;;;12.07;100.00;100812.78;4803989;29;20038;-78
2021/10/02 02:52:31;;;;;;;10.05;3.15;;;;;;;12.03;100.00;100810.72;4799163;29;20042;-79
2021/10/02 02:55:11;;;;;;;14.07;2.80;;;;;;;11.97;100.00;100813.19;4795228;29;20434;-78
2021/10/02 02:57:47;;;;;;;14.48;3.33;;;;;;;11.94;100.00;100813.59;4785387;29;20027;-78
2021/10/02 03:00:16;;;;;;;9.95;2.75;;;;;;;11.79;100.00;100793.25;4803207;29;20035;-78
2021/10/02 03:03:13;;;;;;;14.82;3.38;;;;;;;11.86;100.00;100811.13;4802144;29;20063;-78
2021/10/02 03:05:40;;;;;;;8.82;2.58;;;;;;;11.80;100.00;100806.53;4800485;29;20047;-78
2021/10/02 03:08:09;;;;;;;14.88;2.85;;;;;;;11.77;100.00;100806.94;4801960;29;20038;-78
2021/10/02 03:10:37;;;;;;;10.57;2.83;;;;;;;11.62;100.00;100787.44;4801922;29;20047;-78
2021/10/02 03:13:09;;;;;;;10.85;2.92;;;;;;;11.70;100.00;100798.03;4778530;30;20442;-78
2021/10/02 03:15:36;;;;;;;8.75;2.70;;;;;;;11.65;100.00;100806.72;4801226;29;20473;-78
2021/10/02 03:18:03;;;;;;;10.52;3.05;;;;;;;11.62;100.00;100795.53;4763654;29;20039;-79
2021/10/02 03:20:29;;;;;;;7.22;2.25;;;;;;;11.54;100.00;100783.09;4801099;29;20087;-78
2021/10/02 03:22:56;;;;;;;10.32;2.85;;;;;;;11.56;100.00;100793.69;4787843;29;20042;-78
2021/10/02 03:25:30;;;;;;;7.20;2.50;;;;;;;11.41;100.00;100778.50;4785948;29;20035;-78
2021/10/02 03:27:58;;;;;;;13.60;2.63;;;;;;;11.41;100.00;100791.97;4770454;29;20092;-78
2021/10/02 03:30:25;;;;;;;6.47;2.75;;;;;;;11.44;100.00;100796.97;4786056;29;20818;-78
2021/10/02 03:32:51;;;;;;;6.40;2.30;;;;;;;11.37;100.00;100779.97;4773026;29;20462;-78
2021/10/02 03:35:18;;;;;;;10.48;3.10;;;;;;;11.41;100.00;100799.22;4787798;29;20039;-78
2021/10/02 03:37:44;;;;;;;6.80;3.15;;;;;;;11.39;100.00;100803.97;4801539;29;20039;-78
2021/10/02 03:40:10;;;;;;;10.80;2.97;;;;;;;11.39;100.00;100795.91;4791019;29;20540;-78
2021/10/02 03:42:43;;;;;;;10.88;3.30;;;;;;;11.36;100.00;100794.47;4777584;29;20103;-78
2021/10/02 03:45:10;;;;;;;9.47;2.93;;;;;;;11.33;100.00;100794.06;4811911;29;20072;-78
2021/10/02 03:47:35;;;;;;;11.43;2.95;;;;;;;11.32;100.00;100793.19;4807029;29;20035;-78
2021/10/02 03:50:03;;;;;;;11.65;2.60;;;;;;;11.34;100.00;100788.44;4801000;29;20458;-77
2021/10/02 03:52:28;;;;;;;8.35;3.10;;;;;;;11.37;100.00;100782.66;4802994;29;20369;-78
2021/10/02 03:54:54;;;;;;;11.02;3.05;;;;;;;11.37;100.00;100779.97;4798046;29;20143;-78
2021/10/02 03:57:19;;;;;;;11.23;2.88;;;;;;;11.34;100.00;100774.97;4758803;29;20043;-78
2021/10/02 03:59:44;;;;;;;10.88;2.88;;;;;;;11.15;100.00;100746.97;4763283;29;20165;-78
2021/10/02 04:02:10;;;;;;;8.32;2.90;;;;;;;11.32;100.00;100776.22;4787850;29;20404;-78
2021/10/02 04:04:35;;;;;;;14.13;4.03;;;;;;;11.34;100.00;100776.84;4769156;29;20043;-78
2021/10/02 04:07:01;;;;;;;9.98;3.40;;;;;;;11.40;100.00;100784.13;4785532;29;20035;-78
2021/10/02 04:09:26;;;;;;;15.48;3.72;;;;;;;11.40;100.00;100784.94;4771856;29;20489;-78
2021/10/02 04:11:53;;;;;;;11.68;3.15;;;;;;;11.40;100.00;100787.63;4793926;29;20043;-78
2021/10/02 04:14:18;;;;;;;12.55;3.40;;;;;;;11.42;100.00;100785.56;4802551;29;20031;-78
2021/10/02 04:16:44;;;;;;;13.05;3.13;;;;;;;11.41;100.00;100791.16;4804959;29;20035;-79
2021/10/02 04:19:09;;;;;;;17.52;3.63;;;;;;;11.44;100.00;100791.56;4804636;29;20190;-78
2021/10/02 04:21:35;;;;;;;12.75;3.50;;;;;;;11.40;100.00;100789.50;4808787;29;20126;-78
2021/10/02 04:24:00;;;;;;;10.98;3.60;;;;;;;11.44;100.00;100794.25;4788009;29;20145;-77
2021/10/02 04:26:26;;;;;;;9.48;3.50;;;;;;;11.45;100.00;100787.00;4790835;29;20087;-78
2021/10/02 04:28:51;;;;;;;13.00;3.38;;;;;;;11.36;100.00;100778.31;4789576;29;20034;-78
2021/10/02 04:31:17;;;;;;;11.68;3.60;;;;;;;11.39;100.00;100782.44;4804039;29;20049;-78
2021/10/02 04:33:44;;;;;;;12.48;3.60;;;;;;;11.48;100.00;100792.00;4804225;29;20357;-78
2021/10/02 04:36:11;;;;;;;14.95;3.90;;;;;;;11.46;100.00;100791.38;4772405;29;20049;-78
2021/10/02 04:38:37;;;;;;;11.85;3.72;;;;;;;11.50;100.00;100792.63;4802020;29;20031;-78
2021/10/02 04:41:03;;;;;;;11.93;3.80;;;;;;;11.42;100.00;100777.50;4774833;29;21303;-78
2021/10/02 04:43:28;;;;;;;14.00;3.88;;;;;;;11.49;100.00;100793.66;4815548;29;20039;-78
2021/10/02 04:45:54;;;;;;;11.07;3.92;;;;;;;11.49;100.00;100790.97;4775342;29;20583;-78
2021/10/02 04:48:19;;;;;;;12.40;4.10;;;;;;;11.47;100.00;100783.06;4789044;29;20062;-78
2021/10/02 04:50:44;;;;;;;15.25;4.28;;;;;;;11.45;100.00;100789.69;4805329;29;20046;-78
2021/10/02 04:53:10;;;;;;;11.77;3.67;;;;;;;11.48;100.00;100787.41;4804339;29;20157;-78
2021/10/02 04:55:36;;;;;;;14.07;4.00;;;;;;;11.48;100.00;100781.22;4804512;29;20042;-78
2021/10/02 04:58:01;;;;;;;14.30;4.32;;;;;;;11.46;100.00;100775.22;4804481;29;20442;-78
2021/10/02 05:00:26;;;;;;;15.57;4.03;;;;;;;11.45;100.00;100779.75;4804156;29;20047;-78
2021/10/02 05:02:52;;;;;;;14.45;4.10;;;;;;;11.44;100.00;100790.75;4804205;29;20454;-78
2021/10/02 05:05:17;;;;;;;14.88;4.03;;;;;;;11.41;100.00;100794.66;4789245;29;20117;-79
2021/10/02 05:07:43;;;;;;;10.27;3.75;;;;;;;11.43;100.00;100792.63;4794759;29;20035;-79
2021/10/02 05:10:09;;;;;;;12.80;4.30;;;;;;;11.29;100.00;100772.91;4759456;29;20031;-78
2021/10/02 05:12:34;;;;;;;13.25;4.00;;;;;;;11.25;100.00;100755.47;4800751;29;20037;-78
2021/10/02 05:14:59;;;;;;;10.05;3.53;;;;;;;11.42;100.00;100782.88;4788346;29;20050;-78
2021/10/02 05:17:25;;;;;;;12.23;4.38;;;;;;;11.42;100.00;100788.28;4798181;29;20072;-78
2021/10/02 05:19:51;;;;;;;12.07;4.20;;;;;;;11.41;100.00;100780.38;4774932;29;20787;-78
2021/10/02 05:22:17;;;;;;;13.27;4.35;;;;;;;11.41;100.00;100789.28;4784843;29;20044;-78
2021/10/02 05:24:43;;;;;;;13.68;4.43;;;;;;;11.42;100.00;100788.28;4798706;29;20492;-78
2021/10/02 05:27:10;;;;;;;11.52;3.88;;;;;;;11.42;100.00;100795.50;4799555;29;20051;-78
2021/10/02 05:29:37;;;;;;;14.40;4.18;;;;;;;11.41;100.00;100799.22;4800981;29;20037;-78
2021/10/02 05:32:03;;;;;;;11.88;4.18;;;;;;;11.40;100.00;100798.41;4783285;29;20127;-78
2021/10/02 05:34:29;;;;;;;10.82;4.07;;;;;;;11.38;100.00;100796.94;4785674;29;20031;-78
2021/10/02 05:36:54;;;;;;;11.52;4.13;;;;;;;11.39;100.00;100799.44;4786199;29;20039;-78
2021/10/02 05:39:20;;;;;;;16.08;4.63;;;;;;;11.44;100.00;100806.91;4796162;29;20046;-78
2021/10/02 05:41:46;;;;;;;13.68;4.25;;;;;;;11.46;100.00;100804.84;4781747;29;20569;-79
2021/10/02 05:44:13;;;;;;;12.18;4.35;;;;;;;11.47;100.00;100804.63;4798086;29;20063;-78
2021/10/02 05:46:38;;;;;;;15.63;4.30;;;;;;;11.48;100.00;100797.38;4775520;29;20031;-78
2021/10/02 05:49:04;;;;;;;12.55;4.10;;;;;;;11.47;100.00;100804.63;4798643;29;20035;-79
2021/10/02 05:51:29;;;;;;;8.38;3.80;;;;;;;11.40;100.00;100781.41;4792083;29;20438;-79
2021/10/02 05:53:55;;;;;;;11.48;3.97;;;;;;;11.44;100.00;100799.66;4808822;29;20070;-79
2021/10/02 05:56:21;;;;;;;9.25;3.92;;;;;;;11.40;100.00;100793.03;4764812;29;20043;-79
2021/10/02 05:58:46;;;;;;;15.45;6.72;;;;;;;11.36;100.00;100783.69;4788234;29;20041;-78
2021/10/02 06:01:12;;;;;;;11.80;4.18;;;;;;;11.44;100.00;100788.88;4786555;29;20035;-79
2021/10/02 06:03:37;;;;;;;12.98;3.90;;;;;;;11.41;100.00;100791.16;4802710;29;20488;-78
2021/10/02 06:06:03;;;;;;;8.00;3.72;;;;;;;11.34;100.00;100790.31;4787543;29;20031;-78
2021/10/02 06:08:29;;;;;;;8.93;3.92;;;;;;;11.34;100.00;100780.38;4804006;29;20112;-78
2021/10/02 06:10:55;;;;;;;10.50;3.90;;;;;;;11.44;100.00;100796.13;4803337;29;20051;-79
2021/10/02 06:13:22;;;;;;;12.40;4.07;;;;;;;11.44;100.00;100802.34;4775248;29;20046;-79
2021/10/02 06:15:47;;;;;;;10.77;4.32;;;;;;;11.43;100.00;100803.38;4770532;29;20035;-79
2021/10/02 06:18:13;;;;;;;11.90;4.13;;;;;;;11.44;100.00;100809.59;4802095;29;20046;-80
2021/10/02 06:20:38;;;;;;;11.77;4.47;;;;;;;11.44;100.00;100821.22;4759778;29;20046;-79
2021/10/02 06:23:04;;;;;;;14.50;4.45;;;;;;;11.37;100.00;100819.53;4773983;29;20031;-80
2021/10/02 06:25:31;;;;;;;15.35;4.55;;;;;;;11.42;100.00;100806.28;4807117;29;20031;-79
2021/10/02 06:27:56;;;;;;;10.40;3.92;;;;;;;11.49;100.00;100828.69;4790135;29;20027;-81
2021/10/02 06:30:22;;;;;;;7.45;3.72;;;;;;;11.50;100.00;100811.47;4796194;29;20031;-81
2021/10/02 06:32:47;;;;;;;13.13;3.83;;;;;;;11.48;100.00;100814.38;4782318;29;20465;-80
2021/10/02 06:35:13;;;;;;;9.55;3.67;;;;;;;11.46;100.00;100811.06;4777697;30;20039;-80
2021/10/02 06:37:39;;;;;;;11.60;3.83;;;;;;;11.38;100.00;100792.38;4803932;29;20045;-82
2021/10/02 06:40:07;;;;;;;10.77;4.47;;;;;;;11.56;100.00;100821.44;4790572;29;20066;-80
2021/10/02 06:42:33;;;;;;;16.00;3.65;;;;;;;11.58;100.00;100830.13;4808252;29;20049;-80
2021/10/02 06:44:58;;;;;;;11.77;4.68;;;;;;;11.60;100.00;100828.09;4796298;29;20070;-81
2021/10/02 06:47:24;;;;;;;12.63;4.03;;;;;;;11.62;100.00;100831.41;4807416;29;20035;-80
2021/10/02 06:49:50;;;;;;;10.63;3.65;;;;;;;11.64;100.00;100833.88;4783822;29;20050;-80
2021/10/02 06:52:15;;;;;;;7.95;3.50;;;;;;;11.66;100.00;100838.03;4788755;29;20078;-81
2021/10/02 06:54:41;;;;;;;7.07;3.30;;;;;;;11.61;100.00;100829.72;4796723;29;20059;-80
2021/10/02 06:57:07;;;;;;;9.73;4.10;;;;;;;11.59;100.00;100833.66;4805850;29;20484;-80
2021/10/02 06:59:33;;;;;;;9.98;4.15;;;;;;;11.58;100.00;100827.44;4793627;29;20062;-80
2021/10/02 07:01:59;;;;;;;8.32;3.92;;;;;;;11.62;100.00;100836.81;4808324;29;20038;-80
2021/10/02 07:04:25;;;;;;;11.02;4.68;;;;;;;11.61;100.00;100840.50;4785345;29;20031;-80
2021/10/02 07:06:50;;;;;;;9.50;4.47;;;;;;;11.55;100.00;100840.50;4801702;29;20092;-78
2021/10/02 07:09:16;;;;;;;7.05;4.57;;;;;;;11.48;100.00;100833.22;4798309;29;20050;-82
2021/10/02 07:11:41;;;;;;;10.60;4.57;;;;;;;11.56;100.00;100843.00;4827274;29;20070;-82
2021/10/02 07:14:08;;;;;;;13.10;5.13;;;;;;;11.42;100.00;100819.75;4798478;29;20015;-79
2021/10/02 07:16:34;;;;;;;11.38;4.40;;;;;;;11.52;100.00;100845.28;4803453;29;20116;-80
2021/10/02 07:19:01;;;;;;;9.68;4.53;;;;;;;11.52;100.00;100850.69;4787903;29;20047;-77
2021/10/02 07:21:26;;;;;;;8.68;4.78;;;;;;;11.52;100.00;100853.38;4774433;30;20122;-79
2021/10/02 07:23:52;;;;;;;11.15;4.50;;;;;;;11.39;100.00;100836.31;4759416;30;20118;-78
2021/10/02 07:26:17;;;;;;;10.80;4.32;;;;;;;11.51;100.00;100842.78;4773719;30;20031;-78
2021/10/02 07:28:43;;;;;;;7.43;4.43;;;;;;;11.49;100.00;100852.94;4781125;29;20042;-79
2021/10/02 07:31:08;;;;;;;8.23;4.70;;;;;;;11.50;100.00;100849.22;4768948;29;20445;-79
2021/10/02 07:33:33;;;;;;;8.73;4.80;;;;;;;11.50;100.00;100851.91;4800587;29;20078;-78
2021/10/02 07:35:59;;;;;;;7.57;4.10;;;;;;;11.51;100.00;100858.94;4803570;29;20038;-78
2021/10/02 07:38:24;;;;;;;7.75;3.63;;;;;;;11.42;100.00;100838.59;4758513;29;20637;-78
2021/10/02 07:40:50;;;;;;;11.15;4.00;;;;;;;11.47;100.00;100847.75;4795231;29;20031;-78
2021/10/02 07:43:16;;;;;;;7.40;4.18;;;;;;;11.49;100.00;100852.94;4795171;29;20106;-79
2021/10/02 07:45:44;;;;;;;9.68;4.30;;;;;;;11.47;100.00;100853.13;4791385;29;20456;-79
2021/10/02 07:48:14;;;;;;;10.02;4.43;;;;;;;11.49;100.00;100858.34;4805975;29;20084;-78
2021/10/02 07:50:40;;;;;;;7.40;4.47;;;;;;;11.45;100.00;100859.75;4774175;29;20035;-79
2021/10/02 07:53:09;;;;;;;9.73;4.40;;;;;;;11.46;100.00;100856.03;4800682;29;20031;-78
2021/10/02 07:55:34;;;;;;;10.57;3.85;;;;;;;11.45;100.00;100854.38;4792868;29;20533;-78
2021/10/02 07:58:01;;;;;;;9.63;4.13;;;;;;;11.34;100.00;100842.31;4805433;29;20057;-77
2021/10/02 08:00:28;;;;;;;6.40;4.28;;;;;;;11.41;100.00;100862.03;4802454;29;20032;-78
2021/10/02 08:02:59;;;;;;;9.73;5.05;;;;;;;11.41;100.00;100861.19;4806189;29;20039;-78
2021/10/02 08:05:25;;;;;;;10.23;4.43;;;;;;;11.36;100.00;100847.53;4789840;29;20039;-78
2021/10/02 08:07:51;;;;;;;8.63;5.03;;;;;;;11.37;100.00;100851.88;4795488;29;20031;-78
2021/10/02 08:10:21;;;;;;;9.35;4.80;;;;;;;11.46;100.00;100864.13;4797083;29;20180;-78
2021/10/02 08:12:47;;;;;;;7.57;4.13;;;;;;;11.44;100.00;100856.22;4810241;29;20034;-78
2021/10/02 08:15:13;;;;;;;8.57;4.18;;;;;;;11.42;100.00;100862.84;4791475;29;20458;-78
2021/10/02 08:17:41;;;;;;;7.68;4.50;;;;;;;11.44;100.00;100867.00;4780674;29;20042;-78
2021/10/02 08:20:12;;;;;;;9.52;4.63;;;;;;;11.44;100.00;100871.56;4802789;29;20035;-78
2021/10/02 08:22:43;;;;;;;9.48;4.63;;;;;;;11.42;100.00;100874.50;4804085;29;20023;-78
2021/10/02 08:25:11;;;;;;;8.55;3.75;;;;;;;11.45;100.00;100865.16;4786438;29;20038;-78
2021/10/02 08:27:37;;;;;;;7.13;3.92;;;;;;;11.44;100.00;100856.22;4788854;29;20050;-78
2021/10/02 08:30:04;;;;;;;10.45;3.63;;;;;;;11.45;100.00;100857.06;4810244;29;20072;-78
2021/10/02 08:32:30;;;;;;;9.00;3.90;;;;;;;11.47;100.00;100844.22;4791825;29;20034;-77
2021/10/02 08:34:56;;;;;;;7.45;3.60;;;;;;;11.39;100.00;100837.16;4773419;29;20050;-78
2021/10/02 08:37:21;;;;;;;9.10;4.13;;;;;;;11.41;100.00;100839.66;4795550;29;20039;-78
2021/10/02 08:39:46;;;;;;;9.65;3.45;;;;;;;11.45;100.00;100848.97;4775661;29;20046;-78
2021/10/02 08:42:12;;;;;;;7.70;3.30;;;;;;;11.45;100.00;100849.81;4788318;29;20051;-78
2021/10/02 08:44:38;;;;;;;4.43;3.13;;;;;;;11.43;100.00;100849.19;4789404;29;20380;-77
2021/10/02 08:47:04;;;;;;;6.90;3.22;;;;;;;11.37;100.00;100836.53;4805278;29;20034;-78
2021/10/02 08:49:33;;;;;;;7.15;3.40;;;;;;;11.44;100.00;100858.94;4793725;29;20489;-78
2021/10/02 08:52:00;;;;;;;5.95;3.60;;;;;;;11.40;100.00;100859.56;4805799;29;20362;-77
2021/10/02 08:54:27;;;;;;;7.57;3.80;;;;;;;11.42;100.00;100846.69;4797616;29;20478;-78
2021/10/02 08:56:53;;;;;;;8.52;3.42;;;;;;;11.37;100.00;100843.78;4780768;29;20047;-77
2021/10/02 08:59:22;;;;;;;8.50;3.67;;;;;;;11.41;100.00;100851.25;4803995;29;20290;-78
2021/10/02 09:01:49;;;;;;;7.07;3.22;;;;;;;11.44;100.00;100844.63;4792904;29;20469;-78
2021/10/02 09:04:15;;;;;;;8.65;3.30;;;;;;;11.41;100.00;100845.84;4804653;29;20425;-78
2021/10/02 09:06:40;;;;;;;4.50;2.60;;;;;;;11.50;100.00;100849.22;4804347;29;20059;-77
2021/10/02 09:09:07;;;;;;;5.25;3.03;;;;;;;11.51;100.00;100853.56;4803583;29;20077;-78
2021/10/02 09:11:33;;;;;;;6.15;2.83;;;;;;;11.54;100.00;100845.06;4803197;29;20053;-78
2021/10/02 09:14:00;;;;;;;7.15;2.75;;;;;;;11.55;100.00;100843.19;4787565;29;20038;-78
2021/10/02 09:16:25;;;;;;;5.63;3.08;;;;;;;11.58;100.00;100849.00;4790990;29;20030;-78
2021/10/02 09:18:50;;;;;;;5.40;2.78;;;;;;;11.59;100.00;100848.00;4805446;29;20488;-77
2021/10/02 09:21:17;;;;;;;7.00;2.83;;;;;;;11.59;100.00;100845.28;4801501;29;20034;-78
2021/10/02 09:23:50;;;;;;;3.90;2.38;;;;;;;11.53;100.00;100833.47;4786583;29;20039;-77
2021/10/02 09:26:36;;;;;;;4.70;2.15;;;;;;;11.62;100.00;100847.59;4798610;29;20035;-78
2021/10/02 09:29:02;;;;;;;10.70;2.60;;;;;;;11.69;100.00;100840.34;4800091;29;20041;-78
2021/10/02 09:31:31;;;;;;;12.70;2.50;;;;;;;11.69;100.00;100850.28;4788856;29;20034;-78
2021/10/02 09:33:56;;;;;;;9.13;2.65;;;;;;;11.70;100.00;100850.06;4798659;29;20028;-78
2021/10/02 09:36:25;;;;;;;9.93;2.92;;;;;;;11.70;100.00;100839.28;4800042;29;20088;-77
2021/10/02 09:38:51;;;;;;;5.05;2.45;;;;;;;11.67;100.00;100857.75;4799282;29;20035;-78
2021/10/02 09:41:17;;;;;;;6.97;2.00;;;;;;;11.66;100.00;100839.91;4798427;29;20038;-78
2021/10/02 09:43:48;;;;;;;6.22;1.70;;;;;;;11.64;100.00;100847.38;4797089;29;21405;-78
2021/10/02 09:46:14;;;;;;;5.57;1.80;;;;;;;11.57;100.00;100825.78;4798295;29;20469;-78
2021/10/02 09:48:39;;;;;;;4.95;1.63;;;;;;;11.58;100.00;100832.84;4767751;29;20046;-78
2021/10/02 09:51:06;;;;;;;7.30;2.10;;;;;;;11.58;100.00;100822.06;4797834;29;20031;-78
2021/10/02 09:53:40;;;;;;;5.35;1.75;;;;;;;11.58;100.00;100830.13;4782291;29;20061;-78
2021/10/02 09:56:12;;;;;;;4.68;1.98;;;;;;;11.56;100.00;100828.72;4781665;29;20093;-78
2021/10/02 09:58:38;;;;;;;4.20;1.90;;;;;;;11.46;100.00;100821.84;4797162;29;20139;-79
2021/10/02 10:01:06;;;;;;;4.82;1.70;;;;;;;11.54;100.00;100823.50;4799686;29;20038;-77
2021/10/02 10:03:46;;;;;;;3.55;1.80;;;;;;;11.55;100.00;100827.84;4781760;29;20035;-78
2021/10/02 10:06:29;;;;;;;5.13;1.80;;;;;;;11.34;100.00;100787.63;4796006;29;20031;-79
2021/10/02 10:09:08;;;;;;;10.40;2.30;;;;;;;11.55;100.00;100824.34;4793892;29;20058;-79
2021/10/02 10:11:47;;;;;;;4.80;1.85;;;;;;;11.47;100.00;100815.41;4806607;29;20049;-78
2021/10/02 10:14:20;;;;;;;4.38;2.10;;;;;;;11.52;100.00;100823.72;4807932;29;20042;-76
2021/10/02 10:16:45;;;;;;;4.85;2.10;;;;;;;11.59;100.00;100817.50;4803319;29;20038;-78
2021/10/02 10:19:28;;;;;;;6.93;2.35;;;;;;;11.56;100.00;100809.84;4768713;29;20723;-78
2021/10/02 10:22:20;;;;;;;7.15;2.47;;;;;;;11.60;100.00;100816.47;4779332;29;20089;-78
2021/10/02 10:24:54;;;;;;;8.07;2.53;;;;;;;11.65;100.00;100809.41;4781310;29;20367;-78
2021/10/02 10:27:42;;;;;;;9.18;2.47;;;;;;;11.59;100.00;100804.88;4784265;29;20054;-77
2021/10/02 10:30:17;;;;;;;7.88;2.60;;;;;;;11.66;100.00;100812.97;4798398;29;20027;-77
2021/10/02 10:33:06;;;;;;;8.55;2.90;;;;;;;11.69;100.00;100813.38;4796637;29;20073;-78
2021/10/02 10:35:58;;;;;;;5.75;2.90;;;;;;;11.62;100.00;100806.31;4780372;29;20123;-77
2021/10/02 10:38:25;;;;;;;6.22;2.88;;;;;;;11.68;100.00;100817.09;4781471;29;20073;-77
2021/10/02 10:40:52;;;;;;;5.85;3.03;;;;;;;11.72;100.00;100820.19;4788721;29;20038;-77
2021/10/02 10:43:18;;;;;;;7.85;3.20;;;;;;;11.74;100.00;100812.75;4791489;29;20030;-77
2021/10/02 10:45:44;;;;;;;9.15;3.55;;;;;;;11.70;100.00;100804.25;4807094;29;20077;-78
2021/10/02 10:48:10;;;;;;;8.65;3.40;;;;;;;11.75;100.00;100806.31;4802539;29;20118;-78
2021/10/02 10:50:44;;;;;;;10.48;4.00;;;;;;;11.79;100.00;100810.28;4765676;29;20046;-78
2021/10/02 10:53:11;;;;;;;9.23;3.72;;;;;;;11.57;100.00;100773.75;4785210;29;20031;-78
2021/10/02 10:55:55;;;;;;;9.75;3.92;;;;;;;11.80;100.00;100803.84;4802505;29;20091;-78
2021/10/02 10:58:30;;;;;;;5.45;4.05;;;;;;;11.55;100.00;100765.03;4805175;29;20047;-78
2021/10/02 11:00:57;;;;;;;9.45;4.10;;;;;;;11.81;100.00;100805.47;4789311;29;20030;-78
2021/10/02 11:03:48;;;;;;;10.68;4.07;;;;;;;11.80;100.00;100808.41;4786190;29;20046;-78
2021/10/02 11:06:18;;;;;;;6.07;4.22;;;;;;;11.80;100.00;100808.41;4803931;29;20030;-79
2021/10/02 11:09:01;;;;;;;7.63;4.15;;;;;;;11.77;100.00;100813.16;4806239;29;20035;-79
2021/10/02 11:11:45;;;;;;;7.35;4.65;;;;;;;11.75;100.00;100817.94;4801793;29;20461;-78
2021/10/02 11:14:12;;;;;;;9.73;4.65;;;;;;;11.72;100.00;100812.09;4790435;29;20442;-78
2021/10/02 11:16:39;;;;;;;6.78;4.65;;;;;;;11.74;100.00;100815.44;4802336;29;20036;-78
2021/10/02 11:19:26;;;;;;;9.07;5.03;;;;;;;11.75;100.00;100811.69;4789453;29;20038;-78
2021/10/02 11:22:37;;;;;;;8.10;4.78;;;;;;;11.76;100.00;100806.13;4773670;30;20035;-78
2021/10/02 11:25:16;;;;;;;8.35;4.80;;;;;;;11.70;100.00;100796.16;4778815;29;20130;-78
2021/10/02 11:27:41;;;;;;;11.52;4.80;;;;;;;11.81;100.00;100808.19;4799937;29;20097;-78
2021/10/02 11:30:15;;;;;;;8.05;4.65;;;;;;;11.82;100.00;100801.78;4809518;29;20187;-78
2021/10/02 11:32:41;;;;;;;8.73;5.20;;;;;;;11.81;100.00;100800.09;4792450;29;20034;-77
2021/10/02 11:35:13;;;;;;;9.15;5.13;;;;;;;11.85;100.00;100804.06;4805487;29;20035;-78
2021/10/02 11:37:55;;;;;;;8.02;5.13;;;;;;;11.83;100.00;100797.22;4792558;29;20477;-78
2021/10/02 11:40:36;;;;;;;6.20;4.82;;;;;;;11.81;100.00;100792.00;4790193;29;20112;-77
2021/10/02 11:43:22;;;;;;;6.57;4.63;;;;;;;11.83;100.00;100800.72;4802886;29;20035;-78
2021/10/02 11:45:47;;;;;;;;;;;;;;;11.75;100.00;100799.06;4805627;29;20069;-77
2021/10/02 11:48:15;;;;;;;13.37;5.30;;;;;;;11.75;100.00;100793.69;4805340;29;19917;-78
2021/10/02 11:50:42;;;;;;;6.32;4.97;;;;;;;11.79;100.00;100798.63;4805117;29;20286;-77
2021/10/02 11:53:10;;;;;;;10.73;5.63;;;;;;;11.82;100.00;100796.38;4804217;29;20091;-77
2021/10/02 11:55:35;;;;;;;10.73;5.70;;;;;;;11.81;100.00;100800.09;4805016;29;20126;-78
2021/10/02 11:58:07;;;;;;;8.90;4.90;;;;;;;11.77;100.00;100794.28;4791881;29;20113;-77
2021/10/02 12:00:37;;;;;;;8.13;5.50;;;;;;;11.77;100.00;100805.06;4802132;29;20039;-78
2021/10/02 12:03:03;;;;;;;8.75;5.60;;;;;;;11.79;100.00;100804.88;4787674;29;20064;-78
2021/10/02 12:05:30;;;;;;;8.43;5.30;;;;;;;11.79;100.00;100798.63;4785861;29;20027;-78
2021/10/02 12:07:56;;;;;;;11.07;5.88;;;;;;;11.81;100.00;100793.88;4769555;29;20030;-78
2021/10/02 12:10:21;;;;;;;7.55;5.55;;;;;;;11.82;100.00;100787.44;4810611;29;20118;-78
2021/10/02 12:12:47;;;;;;;9.77;5.85;;;;;;;11.84;100.00;100793.47;4790532;29;20030;-78
2021/10/02 12:15:29;;;;;;;11.90;6.13;;;;;;;11.73;100.00;100776.88;4803422;29;20034;-77
2021/10/02 12:17:55;;;;;;;10.50;6.03;;;;;;;11.87;100.00;100785.00;4788387;29;20069;-77
2021/10/02 12:20:21;;;;;;;11.63;6.38;;;;;;;11.72;100.00;100761.75;4801446;29;20058;-78